Weather at Charleroi airport - EBCI


metar: EBCI 211220Z 04003KT 300V100 9999 SCT035 18/05 Q1002 TEMPO 4000 SHRA

24 minuten geleden, om 12:20 UTC, de wind blies met windsnelheden van 1.5 meter per seconde(3.5 mijl per uur) vanuit Noordoost nabij Charleroi airport. De temperatuur was 18 °C (64 °F), en de barometerdruk was 1,002 hPa (29.59 inHg). De relatieve vochtigheid was 42.3%. er was verspreide bewolking op een hoogte van 1067 meter (3500 voet). De zichtbaarheid was >10 kilometer (>6.2 mijl).

temperature image   windir image sky image 

Last 24 hour graph Charleroi Airport - EBCI